Timeline UpdatesTrip UpdatesNews PostsPvt Posts♥♥Travel TipsAdmin PostsConv PostsFollowed PostsChat RequestsBlog PostsPNR Posts

Disclaimer
Search
 
 
Sun Nov 23, 2014 17:49:21 ISTHomeTrainsΣChainsAtlasPNRForumGalleryNewsFAQTripsMembersLoginFeedback
No Recent News for this Train
Other Trains in the News **new
Latest...
⇐ Return Journey: Train# 14235

14236/Bareilly - Varanasi Express

Time-Table HAS CHANGED.
Oct 27 (10:48AM)
Change Departure Station:
Change Arrival Station:
Post a Train Travel TipPost a Train Travel Tip **new
Post a Comment/Question/Picture/VideoPost a Comment/Question/Picture/Video
Pantry/Catering
✕ NO Pantry Car
✕ NO Catering
RSA - Rake Sharing
Rake/Coach Composition
LOCO-SLR-GS1-GS2-B1-S5-S4-S3-S2-S1-GS3-GS4-SLR. Blog# 943920.
Loco
News    PNR    Forum    Time-Table    Availability    Fare Chart    Map    Arr/Dep History    Trips    Gallery    ΣChains    X/O    Timeline    
Travel Time: 0h 22m    1 halts    Distance: 20 km    Avg Speed: 54 km/hr
Type: Mail/Express
Zone: NR/Northern
Departs @ 15:35 (Avg 14m late)
Platform# 3
SMTWTFS
Bareilly Junction/BE 
Arrives @ 15:57 (Avg 33m late)
Platform# ???
SMTWTFS
Pitambarpur/PMR 

1 halts. 2 intermediate Stations between Bareilly Junction and Pitambarpur

Show ALL intermediate Stations  Show Old Time-Table

#TrkCodeStation NameX/OArrivesAvgDepartsAvgHaltPFDay#KmSpeedElevZoneAddress
1/==/BEBareilly Junction (4)»  -15:35+14310.057174mNRBareilly, Uttar Pradesh
2/==/RYSRasuriya  15:46+2715:48+312m--110.463174mNRNH 24, Uttar Pradesh
3/==/PMRPitambarpur (3)•  15:57+3315:59+342m--119.957171mNRPitambarpur, Uttar Pradesh
4/==/TSATisua  16:08+3516:10+372m--128.453165mNRNational Highway 24, Uttar Pradesh
5/==/BLPUBilpur  16:18+3616:20+392m--135.454161mNRFatehganj, Uttar Pradesh
6/==/MKMiranpur Katra  16:28+4016:30+402m--142.658162mNRShahjahanpur, Uttar Pradesh
7/==/TLHTilhar  16:42 16:40+4016:44 16:42+442m--152.365163mNRTilhar, Uttar Pradesh
8/==/BTRABanthraX  16:53 16:51+4616:55 16:53+472m--162.134154mNRNH 24, Uttar Pradesh
9/==/SPNShahjahanpur Junction (5)X  17:07 17:08+4117:12 17:13+445m1170.555156mNRShahjahanpur, Uttar Pradesh
10/=-|ROZARoza Junction (4)X  17:20 17:21+5217:22 17:23+532m--177.851156mNRShahjahanpur, Uttar Pradesh
11/==/KHKahiliyaX  17:33+5517:35+592m--186.464152mNRSH 25, Uttar Pradesh
12/==/AIGAlgawan  17:43+1:0117:45+1:122m--194.954152mNRAlgawan, Uttar Pradesh
13/==/AJIAnjhi ShahabadX  17:52+1:1317:54+1:172m--1101.264148mNRAnjhi Shahabad, Uttar Pradesh
14/==/TDPTodarpur  18:02+1:1818:04+1:182m--1109.765147mNRSH 25, Uttar Pradesh
15/==/BEGBehtagokulXO  18:11 18:10+1:1918:13 18:12+1:292m--1116.159152mNRBehtagokul, Uttar Pradesh
16/==/KUFKaurha  18:22 18:21+1:3018:24 18:23+1:372m--1125.056148mNRSH 25, Uttar Pradesh
17/==/HRIHardoi (5)X  18:33 18:32+1:3318:35 18:34+1:392m31133.445146mNRHardoi, Uttar Pradesh
18/==/KARKarnaX  18:48 18:47+1:4618:50 18:49+1:532m--1143.256143mNRHardoi, Uttar Pradesh
19/==/MSTMasit  18:58 18:57+1:5219:00 18:59+1:512m--1150.752141mNRSH 25, Uttar Pradesh
20/==/BGHBaghauliX  19:08 19:07+1:5119:10 19:09+2:032m--1157.752141mNRsharda nehar, Uttar Pradesh
21/==/BLMBalamau Junction (4)X  19:21 19:19+2:0619:23 19:21+2:062m--1166.452139mNRBalamau, Uttar Pradesh
22/==/DLQDalelnagarX  19:33 19:31+2:0519:35 19:33+2:052m--1175.148136mNRSH 25, Uttar Pradesh
23/==/UTAUmar TaliX  19:42 19:41+2:0419:44 19:43+2:122m--1181.440135mNRHardoi, Uttar Pradesh
24/==/SANSandila (3)X  19:51+2:1319:53+2:202m--1186.760132mNRSandila, Uttar Pradesh
25/==/RBDRahimabadX  20:03 20:04+2:2020:05 20:06+2:212m--1197.851132mNRSH 25, Uttar Pradesh
26/==/DILDilawarnagarX  20:13 20:15+2:2220:15 20:17+2:252m--1205.343133mNRSH 25, Uttar Pradesh
27/==/MLDMalihabadX  20:20 20:25+2:2620:24 20:27+2:344 2m--1211.058130mNRMalihabad, Uttar Pradesh
28/==/KKJKakori (3)XO  20:33 20:37+2:2320:35 20:39+2:262m--1220.76129mNRSH 25, Uttar Pradesh
29/==/LKOLucknow Charbagh NR (9)X  23:00 23:15+5723:15 23:25+1:0115 10m51235.245 NR226004, Uttar Pradesh
30/==/BBKBarabanki Junction (4)X  23:55 00:03+1:1423:57 00:05+1:132m32263.860 NRPin-225001, Uttar Pradesh
31|--|DYDDaryabad  00:28 00:43+1:2700:30 00:45+1:272m--2301.858116mNRFaizabad Rd, Uttar Pradesh
32|--|RDLRudauli (2)  00:48 01:09+1:2800:50 01:11+1:292m--2324.962112mNRRudauli, Uttar Pradesh
33|--|FDFaizabad Junction (5)X  01:48+1:1401:53+1:175m12363.127104mNRFaizabad, Uttar Pradesh
34|--|AYAyodhya Junction (3)X  02:08+1:3102:10+1:332m12369.84098mNRAyodhya, Uttar Pradesh
35|--|GGJGoshainGanj (3)  02:58+1:1903:00+1:222m--2401.56798mNRGoshainganj, Uttar Pradesh
36|--|ABPAkbarpur Junction (2)  03:20+1:2703:22+1:292m--2423.77692mNRAkbarpur, Uttar Pradesh
37|--|MLPRMalipur (2)  03:37+1:3603:39+1:372m--2442.84792mNRMalipur, Uttar Pradesh
38|--|SHGShahganj Junction (4)X  04:11+1:3504:15+1:354m--2467.85390mNRShahganj, Uttar Pradesh
39|--|KSKheta Sarai (1)  04:27+1:3504:29+1:362m--2478.47288mNRKheta Sarai, Uttar Pradesh
40|--|JNUJaunpur Junction (5)  04:48+1:3804:50+1:402m--2501.13283mNRJaunpur, Uttar Pradesh
41|--|ZBDZafarabad Junction (4)X  05:02+1:3705:04+1:372m--2507.53683mNRNational Highway 56, Uttar Pradesh
42/==/KSFKhalispur (2)  05:43+1:2205:44+1:231m--2530.97083mNRPhulpur, Uttar Pradesh
43/==/BTPBabatpur (2)X  05:52+1:2105:54+1:212m--2540.22084mNRSatomahua-Mangari Rd, Uttar Pradesh
44/==/BSBVaranasi Junction (9)  06:50+43-82558.8-82mNRVaranasi 221002, Uttar Pradesh
Scroll to Top
Scroll to Bottom